sensor_id;sensor_type;location;lat;lon;timestamp;temperature;humidity
3298;DHT22;1661;53.572;10.174;2023-07-29T00:02:00;20.70;82.50
3298;DHT22;1661;53.572;10.174;2023-07-29T00:04:27;20.70;82.70
3298;DHT22;1661;53.572;10.174;2023-07-29T00:06:54;20.60;82.50
3298;DHT22;1661;53.572;10.174;2023-07-29T00:09:22;20.60;82.40
3298;DHT22;1661;53.572;10.174;2023-07-29T00:11:49;20.60;82.80
3298;DHT22;1661;53.572;10.174;2023-07-29T00:14:15;20.60;82.60
3298;DHT22;1661;53.572;10.174;2023-07-29T00:16:42;20.60;82.50
3298;DHT22;1661;53.572;10.174;2023-07-29T00:19:10;20.50;82.90
3298;DHT22;1661;53.572;10.174;2023-07-29T00:21:37;20.50;82.90
3298;DHT22;1661;53.572;10.174;2023-07-29T00:24:04;20.50;82.70
3298;DHT22;1661;53.572;10.174;2023-07-29T00:26:32;20.40;82.40
3298;DHT22;1661;53.572;10.174;2023-07-29T00:28:59;20.40;82.40
3298;DHT22;1661;53.572;10.174;2023-07-29T00:31:25;20.40;82.40
3298;DHT22;1661;53.572;10.174;2023-07-29T00:33:52;20.30;83.00
3298;DHT22;1661;53.572;10.174;2023-07-29T00:36:19;20.30;83.40
3298;DHT22;1661;53.572;10.174;2023-07-29T00:38:46;20.20;83.30
3298;DHT22;1661;53.572;10.174;2023-07-29T00:41:13;20.20;82.90
3298;DHT22;1661;53.572;10.174;2023-07-29T00:43:42;20.20;82.80
3298;DHT22;1661;53.572;10.174;2023-07-29T00:46:09;20.10;82.90
3298;DHT22;1661;53.572;10.174;2023-07-29T00:48:36;20.10;83.20
3298;DHT22;1661;53.572;10.174;2023-07-29T00:51:03;20.10;83.80
3298;DHT22;1661;53.572;10.174;2023-07-29T00:53:30;20.00;83.80
3298;DHT22;1661;53.572;10.174;2023-07-29T00:55:56;20.00;83.90
3298;DHT22;1661;53.572;10.174;2023-07-29T00:58:24;20.00;84.20
3298;DHT22;1661;53.572;10.174;2023-07-29T01:00:53;19.90;84.00
3298;DHT22;1661;53.572;10.174;2023-07-29T01:03:21;19.90;83.90
3298;DHT22;1661;53.572;10.174;2023-07-29T01:05:59;19.90;83.70
3298;DHT22;1661;53.572;10.174;2023-07-29T01:08:33;19.90;83.70
3298;DHT22;1661;53.572;10.174;2023-07-29T01:11:14;19.80;84.00
3298;DHT22;1661;53.572;10.174;2023-07-29T01:13:48;19.80;84.30
3298;DHT22;1661;53.572;10.174;2023-07-29T01:16:24;19.80;84.50
3298;DHT22;1661;53.572;10.174;2023-07-29T01:18:54;19.80;84.70
3298;DHT22;1661;53.572;10.174;2023-07-29T01:21:21;19.80;85.20
3298;DHT22;1661;53.572;10.174;2023-07-29T01:23:53;19.70;85.40
3298;DHT22;1661;53.572;10.174;2023-07-29T01:26:24;19.70;86.10
3298;DHT22;1661;53.572;10.174;2023-07-29T01:28:51;19.70;86.80
3298;DHT22;1661;53.572;10.174;2023-07-29T01:31:25;19.70;86.90
3298;DHT22;1661;53.572;10.174;2023-07-29T01:34:01;19.70;86.70
3298;DHT22;1661;53.572;10.174;2023-07-29T01:36:32;19.70;87.00
3298;DHT22;1661;53.572;10.174;2023-07-29T01:39:02;19.70;87.00
3298;DHT22;1661;53.572;10.174;2023-07-29T01:41:29;19.70;86.80
3298;DHT22;1661;53.572;10.174;2023-07-29T01:43:56;19.70;86.60
3298;DHT22;1661;53.572;10.174;2023-07-29T01:46:23;19.70;86.70
3298;DHT22;1661;53.572;10.174;2023-07-29T01:48:50;19.80;87.20
3298;DHT22;1661;53.572;10.174;2023-07-29T01:51:17;19.80;87.60
3298;DHT22;1661;53.572;10.174;2023-07-29T01:53:44;19.80;87.70
3298;DHT22;1661;53.572;10.174;2023-07-29T01:56:12;19.80;88.00
3298;DHT22;1661;53.572;10.174;2023-07-29T01:58:39;19.90;88.40
3298;DHT22;1661;53.572;10.174;2023-07-29T02:01:05;19.90;88.60
3298;DHT22;1661;53.572;10.174;2023-07-29T02:03:32;19.90;89.10
3298;DHT22;1661;53.572;10.174;2023-07-29T02:05:59;19.90;89.00
3298;DHT22;1661;53.572;10.174;2023-07-29T02:08:26;19.90;89.40
3298;DHT22;1661;53.572;10.174;2023-07-29T02:10:54;20.00;89.60
3298;DHT22;1661;53.572;10.174;2023-07-29T02:13:23;20.00;89.60
3298;DHT22;1661;53.572;10.174;2023-07-29T02:15:50;20.00;89.70
3298;DHT22;1661;53.572;10.174;2023-07-29T02:18:17;20.00;89.60
3298;DHT22;1661;53.572;10.174;2023-07-29T02:20:44;20.00;89.90
3298;DHT22;1661;53.572;10.174;2023-07-29T02:23:14;20.00;90.70
3298;DHT22;1661;53.572;10.174;2023-07-29T02:25:42;19.90;91.30
3298;DHT22;1661;53.572;10.174;2023-07-29T02:28:08;19.90;91.00
3298;DHT22;1661;53.572;10.174;2023-07-29T02:30:37;19.90;90.30
3298;DHT22;1661;53.572;10.174;2023-07-29T02:33:03;19.90;90.00
3298;DHT22;1661;53.572;10.174;2023-07-29T02:35:30;19.90;90.00
3298;DHT22;1661;53.572;10.174;2023-07-29T02:37:57;20.00;90.50
3298;DHT22;1661;53.572;10.174;2023-07-29T02:40:24;20.00;90.80
3298;DHT22;1661;53.572;10.174;2023-07-29T02:42:52;20.00;91.10
3298;DHT22;1661;53.572;10.174;2023-07-29T02:45:19;20.00;91.20
3298;DHT22;1661;53.572;10.174;2023-07-29T02:47:47;20.00;91.40
3298;DHT22;1661;53.572;10.174;2023-07-29T02:50:14;20.00;91.40
3298;DHT22;1661;53.572;10.174;2023-07-29T02:52:40;20.00;91.10
3298;DHT22;1661;53.572;10.174;2023-07-29T02:55:07;20.10;91.20
3298;DHT22;1661;53.572;10.174;2023-07-29T02:57:34;20.10;91.40
3298;DHT22;1661;53.572;10.174;2023-07-29T03:00:01;20.10;91.40
3298;DHT22;1661;53.572;10.174;2023-07-29T03:02:28;20.10;91.50
3298;DHT22;1661;53.572;10.174;2023-07-29T03:04:57;20.10;91.40
3298;DHT22;1661;53.572;10.174;2023-07-29T03:07:23;20.00;91.60
3298;DHT22;1661;53.572;10.174;2023-07-29T03:09:50;20.00;91.70
3298;DHT22;1661;53.572;10.174;2023-07-29T03:12:17;20.00;91.80
3298;DHT22;1661;53.572;10.174;2023-07-29T03:14:47;20.00;91.80
3298;DHT22;1661;53.572;10.174;2023-07-29T03:17:15;20.00;91.80
3298;DHT22;1661;53.572;10.174;2023-07-29T03:19:41;20.10;91.70
3298;DHT22;1661;53.572;10.174;2023-07-29T03:22:10;20.00;91.60
3298;DHT22;1661;53.572;10.174;2023-07-29T03:24:36;20.00;91.40
3298;DHT22;1661;53.572;10.174;2023-07-29T03:27:04;20.00;91.30
3298;DHT22;1661;53.572;10.174;2023-07-29T03:29:32;20.00;91.10
3298;DHT22;1661;53.572;10.174;2023-07-29T03:31:58;20.00;91.10
3298;DHT22;1661;53.572;10.174;2023-07-29T03:34:25;20.00;91.30
3298;DHT22;1661;53.572;10.174;2023-07-29T03:36:52;20.00;91.20
3298;DHT22;1661;53.572;10.174;2023-07-29T03:39:20;20.00;91.30
3298;DHT22;1661;53.572;10.174;2023-07-29T03:41:47;19.90;91.40
3298;DHT22;1661;53.572;10.174;2023-07-29T03:44:14;19.80;91.70
3298;DHT22;1661;53.572;10.174;2023-07-29T03:46:41;19.80;92.00
3298;DHT22;1661;53.572;10.174;2023-07-29T03:49:08;19.80;92.10
3298;DHT22;1661;53.572;10.174;2023-07-29T03:51:35;19.80;92.40
3298;DHT22;1661;53.572;10.174;2023-07-29T03:54:01;19.80;92.60
3298;DHT22;1661;53.572;10.174;2023-07-29T03:56:30;19.80;92.70
3298;DHT22;1661;53.572;10.174;2023-07-29T03:59:02;19.80;92.70
3298;DHT22;1661;53.572;10.174;2023-07-29T04:01:29;19.80;92.80
3298;DHT22;1661;53.572;10.174;2023-07-29T04:03:56;19.70;93.00
3298;DHT22;1661;53.572;10.174;2023-07-29T04:06:23;19.80;93.10
3298;DHT22;1661;53.572;10.174;2023-07-29T04:08:50;19.80;93.10
3298;DHT22;1661;53.572;10.174;2023-07-29T04:11:17;19.70;93.30
3298;DHT22;1661;53.572;10.174;2023-07-29T04:13:45;19.80;93.40
3298;DHT22;1661;53.572;10.174;2023-07-29T04:16:11;19.80;93.40
3298;DHT22;1661;53.572;10.174;2023-07-29T04:18:38;19.80;93.40
3298;DHT22;1661;53.572;10.174;2023-07-29T04:21:05;19.90;93.30
3298;DHT22;1661;53.572;10.174;2023-07-29T04:23:32;19.90;93.00
3298;DHT22;1661;53.572;10.174;2023-07-29T04:25:59;19.90;92.90
3298;DHT22;1661;53.572;10.174;2023-07-29T04:28:25;20.00;92.90
3298;DHT22;1661;53.572;10.174;2023-07-29T04:30:53;20.00;92.80
3298;DHT22;1661;53.572;10.174;2023-07-29T04:33:21;20.00;92.70
3298;DHT22;1661;53.572;10.174;2023-07-29T04:35:48;20.00;92.80
3298;DHT22;1661;53.572;10.174;2023-07-29T04:38:14;20.00;93.00
3298;DHT22;1661;53.572;10.174;2023-07-29T04:40:41;20.00;93.00
3298;DHT22;1661;53.572;10.174;2023-07-29T04:43:08;20.00;92.90
3298;DHT22;1661;53.572;10.174;2023-07-29T04:45:35;20.00;92.80
3298;DHT22;1661;53.572;10.174;2023-07-29T04:48:03;20.00;93.00
3298;DHT22;1661;53.572;10.174;2023-07-29T04:50:30;20.00;93.00
3298;DHT22;1661;53.572;10.174;2023-07-29T04:52:57;20.10;93.00
3298;DHT22;1661;53.572;10.174;2023-07-29T04:55:24;20.10;93.00
3298;DHT22;1661;53.572;10.174;2023-07-29T04:57:51;20.10;93.00
3298;DHT22;1661;53.572;10.174;2023-07-29T05:00:17;20.20;92.90
3298;DHT22;1661;53.572;10.174;2023-07-29T05:02:44;20.20;92.80
3298;DHT22;1661;53.572;10.174;2023-07-29T05:05:12;20.20;92.70
3298;DHT22;1661;53.572;10.174;2023-07-29T05:07:39;20.20;92.30
3298;DHT22;1661;53.572;10.174;2023-07-29T05:10:07;20.30;92.40
3298;DHT22;1661;53.572;10.174;2023-07-29T05:12:34;20.30;92.50
3298;DHT22;1661;53.572;10.174;2023-07-29T05:15:01;20.40;92.60
3298;DHT22;1661;53.572;10.174;2023-07-29T05:17:28;20.40;92.50
3298;DHT22;1661;53.572;10.174;2023-07-29T05:19:54;20.50;92.30
3298;DHT22;1661;53.572;10.174;2023-07-29T05:22:23;20.50;92.10
3298;DHT22;1661;53.572;10.174;2023-07-29T05:24:50;20.50;92.00
3298;DHT22;1661;53.572;10.174;2023-07-29T05:27:17;20.50;92.00
3298;DHT22;1661;53.572;10.174;2023-07-29T05:29:44;20.60;91.90
3298;DHT22;1661;53.572;10.174;2023-07-29T05:32:10;20.60;91.70
3298;DHT22;1661;53.572;10.174;2023-07-29T05:34:37;20.60;91.70
3298;DHT22;1661;53.572;10.174;2023-07-29T05:37:04;20.70;91.70
3298;DHT22;1661;53.572;10.174;2023-07-29T05:39:33;20.70;91.50
3298;DHT22;1661;53.572;10.174;2023-07-29T05:41:59;20.80;91.40
3298;DHT22;1661;53.572;10.174;2023-07-29T05:44:28;20.80;91.20
3298;DHT22;1661;53.572;10.174;2023-07-29T05:46:55;20.80;91.20
3298;DHT22;1661;53.572;10.174;2023-07-29T05:49:22;20.80;91.20
3298;DHT22;1661;53.572;10.174;2023-07-29T05:51:49;20.90;91.10
3298;DHT22;1661;53.572;10.174;2023-07-29T05:54:18;20.90;91.10
3298;DHT22;1661;53.572;10.174;2023-07-29T05:56:47;21.00;90.90
3298;DHT22;1661;53.572;10.174;2023-07-29T05:59:13;21.10;90.80
3298;DHT22;1661;53.572;10.174;2023-07-29T06:01:40;21.10;90.40
3298;DHT22;1661;53.572;10.174;2023-07-29T06:04:07;21.10;90.30
3298;DHT22;1661;53.572;10.174;2023-07-29T06:06:34;21.20;90.30
3298;DHT22;1661;53.572;10.174;2023-07-29T06:09:01;21.30;90.30
3298;DHT22;1661;53.572;10.174;2023-07-29T06:11:27;21.30;89.70
3298;DHT22;1661;53.572;10.174;2023-07-29T06:13:55;21.40;89.60
3298;DHT22;1661;53.572;10.174;2023-07-29T06:16:22;21.40;89.30
3298;DHT22;1661;53.572;10.174;2023-07-29T06:18:49;21.40;89.20
3298;DHT22;1661;53.572;10.174;2023-07-29T06:21:18;21.50;88.90
3298;DHT22;1661;53.572;10.174;2023-07-29T06:23:45;21.50;88.70
3298;DHT22;1661;53.572;10.174;2023-07-29T06:26:12;21.50;88.50
3298;DHT22;1661;53.572;10.174;2023-07-29T06:28:39;21.50;88.30
3298;DHT22;1661;53.572;10.174;2023-07-29T06:31:07;21.50;88.10
3298;DHT22;1661;53.572;10.174;2023-07-29T06:33:34;21.50;87.90
3298;DHT22;1661;53.572;10.174;2023-07-29T06:36:01;21.60;88.00
3298;DHT22;1661;53.572;10.174;2023-07-29T06:38:28;21.60;87.80
3298;DHT22;1661;53.572;10.174;2023-07-29T06:40:54;21.70;88.20
3298;DHT22;1661;53.572;10.174;2023-07-29T06:43:21;21.70;88.30
3298;DHT22;1661;53.572;10.174;2023-07-29T06:45:48;21.70;88.00
3298;DHT22;1661;53.572;10.174;2023-07-29T06:48:16;21.80;87.90
3298;DHT22;1661;53.572;10.174;2023-07-29T06:50:44;21.80;87.80
3298;DHT22;1661;53.572;10.174;2023-07-29T06:53:11;21.80;87.80
3298;DHT22;1661;53.572;10.174;2023-07-29T06:55:37;21.90;87.40
3298;DHT22;1661;53.572;10.174;2023-07-29T06:58:04;22.00;87.40
3298;DHT22;1661;53.572;10.174;2023-07-29T07:00:31;22.10;87.40
3298;DHT22;1661;53.572;10.174;2023-07-29T07:02:58;22.20;87.50
3298;DHT22;1661;53.572;10.174;2023-07-29T07:05:26;22.30;87.20
3298;DHT22;1661;53.572;10.174;2023-07-29T07:07:53;22.40;86.70
3298;DHT22;1661;53.572;10.174;2023-07-29T07:10:20;22.50;85.90
3298;DHT22;1661;53.572;10.174;2023-07-29T07:12:46;22.60;85.80
3298;DHT22;1661;53.572;10.174;2023-07-29T07:15:13;22.70;85.90
3298;DHT22;1661;53.572;10.174;2023-07-29T07:17:40;22.70;85.40
3298;DHT22;1661;53.572;10.174;2023-07-29T07:20:07;22.80;84.90
3298;DHT22;1661;53.572;10.174;2023-07-29T07:22:35;22.80;84.50
3298;DHT22;1661;53.572;10.174;2023-07-29T07:25:03;22.70;84.30
3298;DHT22;1661;53.572;10.174;2023-07-29T07:27:29;22.70;84.40
3298;DHT22;1661;53.572;10.174;2023-07-29T07:29:56;22.70;84.40
3298;DHT22;1661;53.572;10.174;2023-07-29T07:32:23;22.70;84.40
3298;DHT22;1661;53.572;10.174;2023-07-29T07:34:50;22.70;84.40
3298;DHT22;1661;53.572;10.174;2023-07-29T07:37:16;22.60;84.30
3298;DHT22;1661;53.572;10.174;2023-07-29T07:39:45;22.60;84.50
3298;DHT22;1661;53.572;10.174;2023-07-29T07:42:11;22.60;84.70
3298;DHT22;1661;53.572;10.174;2023-07-29T07:44:38;22.60;84.80
3298;DHT22;1661;53.572;10.174;2023-07-29T07:47:05;22.60;84.80
3298;DHT22;1661;53.572;10.174;2023-07-29T07:49:32;22.60;84.70
3298;DHT22;1661;53.572;10.174;2023-07-29T07:51:59;22.60;84.90
3298;DHT22;1661;53.572;10.174;2023-07-29T07:54:25;22.70;85.00
3298;DHT22;1661;53.572;10.174;2023-07-29T07:56:54;22.70;85.20
3298;DHT22;1661;53.572;10.174;2023-07-29T07:59:20;22.70;85.10
3298;DHT22;1661;53.572;10.174;2023-07-29T08:01:47;22.80;85.20
3298;DHT22;1661;53.572;10.174;2023-07-29T08:04:14;22.80;85.20
3298;DHT22;1661;53.572;10.174;2023-07-29T08:06:41;22.90;85.20
3298;DHT22;1661;53.572;10.174;2023-07-29T08:09:07;22.80;84.30
3298;DHT22;1661;53.572;10.174;2023-07-29T08:11:34;22.90;84.80
3298;DHT22;1661;53.572;10.174;2023-07-29T08:14:02;22.90;84.70
3298;DHT22;1661;53.572;10.174;2023-07-29T08:16:29;23.00;84.50
3298;DHT22;1661;53.572;10.174;2023-07-29T08:18:56;23.00;84.00
3298;DHT22;1661;53.572;10.174;2023-07-29T08:21:23;23.00;83.70
3298;DHT22;1661;53.572;10.174;2023-07-29T08:23:49;23.00;83.60
3298;DHT22;1661;53.572;10.174;2023-07-29T08:26:16;23.10;83.30
3298;DHT22;1661;53.572;10.174;2023-07-29T08:28:43;23.10;83.40
3298;DHT22;1661;53.572;10.174;2023-07-29T08:31:11;23.10;83.10
3298;DHT22;1661;53.572;10.174;2023-07-29T08:33:38;23.10;82.60
3298;DHT22;1661;53.572;10.174;2023-07-29T08:36:05;23.00;82.20
3298;DHT22;1661;53.572;10.174;2023-07-29T08:38:32;23.00;82.20
3298;DHT22;1661;53.572;10.174;2023-07-29T08:41:06;22.90;82.20
3298;DHT22;1661;53.572;10.174;2023-07-29T08:43:38;23.00;82.50
3298;DHT22;1661;53.572;10.174;2023-07-29T08:46:05;22.90;82.20
3298;DHT22;1661;53.572;10.174;2023-07-29T08:48:40;22.90;82.50
3298;DHT22;1661;53.572;10.174;2023-07-29T08:51:08;22.90;83.10
3298;DHT22;1661;53.572;10.174;2023-07-29T08:53:35;22.90;83.00
3298;DHT22;1661;53.572;10.174;2023-07-29T08:56:02;22.90;83.30
3298;DHT22;1661;53.572;10.174;2023-07-29T08:58:30;22.90;82.80
3298;DHT22;1661;53.572;10.174;2023-07-29T09:00:57;22.90;83.30
3298;DHT22;1661;53.572;10.174;2023-07-29T09:03:24;22.90;83.20
3298;DHT22;1661;53.572;10.174;2023-07-29T09:05:53;23.00;83.40
3298;DHT22;1661;53.572;10.174;2023-07-29T09:08:20;22.90;82.70
3298;DHT22;1661;53.572;10.174;2023-07-29T09:10:48;23.00;82.70
3298;DHT22;1661;53.572;10.174;2023-07-29T09:13:15;23.10;81.60
3298;DHT22;1661;53.572;10.174;2023-07-29T09:15:42;23.10;81.00
3298;DHT22;1661;53.572;10.174;2023-07-29T09:18:10;23.10;81.10
3298;DHT22;1661;53.572;10.174;2023-07-29T09:20:37;23.10;81.50
3298;DHT22;1661;53.572;10.174;2023-07-29T09:23:08;23.20;81.60
3298;DHT22;1661;53.572;10.174;2023-07-29T09:25:35;23.30;81.20
3298;DHT22;1661;53.572;10.174;2023-07-29T09:28:10;23.40;81.20
3298;DHT22;1661;53.572;10.174;2023-07-29T09:30:37;23.50;80.10
3298;DHT22;1661;53.572;10.174;2023-07-29T09:33:04;23.60;80.60
3298;DHT22;1661;53.572;10.174;2023-07-29T09:35:33;23.80;79.50
3298;DHT22;1661;53.572;10.174;2023-07-29T09:38:00;23.80;79.40
3298;DHT22;1661;53.572;10.174;2023-07-29T09:40:34;23.90;77.90
3298;DHT22;1661;53.572;10.174;2023-07-29T09:43:01;24.10;78.60
3298;DHT22;1661;53.572;10.174;2023-07-29T09:45:29;24.20;77.90
3298;DHT22;1661;53.572;10.174;2023-07-29T09:47:57;24.40;76.60
3298;DHT22;1661;53.572;10.174;2023-07-29T09:50:24;24.60;76.40
3298;DHT22;1661;53.572;10.174;2023-07-29T09:52:52;24.70;73.90
3298;DHT22;1661;53.572;10.174;2023-07-29T09:55:21;24.60;74.10
3298;DHT22;1661;53.572;10.174;2023-07-29T09:57:53;24.60;73.40
3298;DHT22;1661;53.572;10.174;2023-07-29T10:00:20;24.70;74.00
3298;DHT22;1661;53.572;10.174;2023-07-29T10:02:47;24.80;72.40
3298;DHT22;1661;53.572;10.174;2023-07-29T10:05:14;24.90;72.90
3298;DHT22;1661;53.572;10.174;2023-07-29T10:07:41;24.90;72.70
3298;DHT22;1661;53.572;10.174;2023-07-29T10:10:09;25.00;72.70
3298;DHT22;1661;53.572;10.174;2023-07-29T10:12:36;25.10;72.20
3298;DHT22;1661;53.572;10.174;2023-07-29T10:15:06;25.20;71.90
3298;DHT22;1661;53.572;10.174;2023-07-29T10:17:34;25.30;70.50
3298;DHT22;1661;53.572;10.174;2023-07-29T10:20:03;25.40;71.10
3298;DHT22;1661;53.572;10.174;2023-07-29T10:22:33;25.50;72.20
3298;DHT22;1661;53.572;10.174;2023-07-29T10:25:04;25.60;70.90
3298;DHT22;1661;53.572;10.174;2023-07-29T10:27:38;25.70;70.20
3298;DHT22;1661;53.572;10.174;2023-07-29T10:30:13;25.80;68.00
3298;DHT22;1661;53.572;10.174;2023-07-29T10:32:42;25.50;67.50
3298;DHT22;1661;53.572;10.174;2023-07-29T10:35:10;25.50;68.80
3298;DHT22;1661;53.572;10.174;2023-07-29T10:37:37;25.70;68.70
3298;DHT22;1661;53.572;10.174;2023-07-29T10:40:07;25.90;68.40
3298;DHT22;1661;53.572;10.174;2023-07-29T10:42:34;25.80;66.60
3298;DHT22;1661;53.572;10.174;2023-07-29T10:45:19;25.80;66.30
3298;DHT22;1661;53.572;10.174;2023-07-29T10:47:46;25.60;65.60
3298;DHT22;1661;53.572;10.174;2023-07-29T10:50:18;25.50;66.90
3298;DHT22;1661;53.572;10.174;2023-07-29T10:52:49;25.50;66.30
3298;DHT22;1661;53.572;10.174;2023-07-29T10:55:29;25.40;66.60
3298;DHT22;1661;53.572;10.174;2023-07-29T10:58:07;25.30;67.30
3298;DHT22;1661;53.572;10.174;2023-07-29T11:00:36;25.40;66.80
3298;DHT22;1661;53.572;10.174;2023-07-29T11:03:05;25.60;67.00
3298;DHT22;1661;53.572;10.174;2023-07-29T11:05:43;25.80;66.70
3298;DHT22;1661;53.572;10.174;2023-07-29T11:08:18;25.90;65.30
3298;DHT22;1661;53.572;10.174;2023-07-29T11:10:57;25.90;65.90
3298;DHT22;1661;53.572;10.174;2023-07-29T11:13:26;25.90;65.00
3298;DHT22;1661;53.572;10.174;2023-07-29T11:15:55;25.90;65.00
3298;DHT22;1661;53.572;10.174;2023-07-29T11:18:26;25.90;64.80
3298;DHT22;1661;53.572;10.174;2023-07-29T11:20:54;25.90;65.40
3298;DHT22;1661;53.572;10.174;2023-07-29T11:23:27;25.90;64.60
3298;DHT22;1661;53.572;10.174;2023-07-29T11:25:55;25.90;65.40
3298;DHT22;1661;53.572;10.174;2023-07-29T11:28:22;25.90;65.90
3298;DHT22;1661;53.572;10.174;2023-07-29T11:30:50;26.00;66.10
3298;DHT22;1661;53.572;10.174;2023-07-29T11:33:20;26.10;65.30
3298;DHT22;1661;53.572;10.174;2023-07-29T11:35:46;26.30;65.20
3298;DHT22;1661;53.572;10.174;2023-07-29T11:38:15;26.40;64.80
3298;DHT22;1661;53.572;10.174;2023-07-29T11:40:42;26.60;64.80
3298;DHT22;1661;53.572;10.174;2023-07-29T11:43:17;26.70;63.20
3298;DHT22;1661;53.572;10.174;2023-07-29T11:45:44;26.70;63.20
3298;DHT22;1661;53.572;10.174;2023-07-29T11:48:11;26.70;63.80
3298;DHT22;1661;53.572;10.174;2023-07-29T11:50:40;26.70;63.20
3298;DHT22;1661;53.572;10.174;2023-07-29T11:53:07;26.70;63.50
3298;DHT22;1661;53.572;10.174;2023-07-29T11:55:33;26.70;64.30
3298;DHT22;1661;53.572;10.174;2023-07-29T11:58:01;26.60;63.60
3298;DHT22;1661;53.572;10.174;2023-07-29T12:00:28;26.40;63.90
3298;DHT22;1661;53.572;10.174;2023-07-29T12:02:55;26.40;65.10
3298;DHT22;1661;53.572;10.174;2023-07-29T12:05:23;26.50;64.60
3298;DHT22;1661;53.572;10.174;2023-07-29T12:07:51;26.70;62.30
3298;DHT22;1661;53.572;10.174;2023-07-29T12:10:18;26.90;60.30
3298;DHT22;1661;53.572;10.174;2023-07-29T12:12:47;27.10;62.00
3298;DHT22;1661;53.572;10.174;2023-07-29T12:15:23;27.30;60.80
3298;DHT22;1661;53.572;10.174;2023-07-29T12:17:53;27.40;59.70
3298;DHT22;1661;53.572;10.174;2023-07-29T12:20:20;27.50;59.10
3298;DHT22;1661;53.572;10.174;2023-07-29T12:22:53;27.60;58.60
3298;DHT22;1661;53.572;10.174;2023-07-29T12:25:20;27.70;59.20
3298;DHT22;1661;53.572;10.174;2023-07-29T12:27:47;27.80;58.70
3298;DHT22;1661;53.572;10.174;2023-07-29T12:30:14;27.90;59.10
3298;DHT22;1661;53.572;10.174;2023-07-29T12:32:44;28.00;57.20
3298;DHT22;1661;53.572;10.174;2023-07-29T12:35:12;27.90;57.50
3298;DHT22;1661;53.572;10.174;2023-07-29T12:37:39;27.80;57.90
3298;DHT22;1661;53.572;10.174;2023-07-29T12:40:23;27.70;57.10
3298;DHT22;1661;53.572;10.174;2023-07-29T12:42:51;27.60;56.50
3298;DHT22;1661;53.572;10.174;2023-07-29T12:45:18;27.60;58.30
3298;DHT22;1661;53.572;10.174;2023-07-29T12:47:46;27.70;57.70
3298;DHT22;1661;53.572;10.174;2023-07-29T12:50:13;27.60;57.50
3298;DHT22;1661;53.572;10.174;2023-07-29T12:52:40;27.70;58.20
3298;DHT22;1661;53.572;10.174;2023-07-29T12:55:08;27.90;57.30
3298;DHT22;1661;53.572;10.174;2023-07-29T12:57:41;28.10;56.80
3298;DHT22;1661;53.572;10.174;2023-07-29T13:00:09;28.20;56.50
3298;DHT22;1661;53.572;10.174;2023-07-29T13:02:36;28.30;57.10
3298;DHT22;1661;53.572;10.174;2023-07-29T13:05:03;28.20;56.70
3298;DHT22;1661;53.572;10.174;2023-07-29T13:07:30;28.20;56.10
3298;DHT22;1661;53.572;10.174;2023-07-29T13:09:57;28.20;56.10
3298;DHT22;1661;53.572;10.174;2023-07-29T13:12:24;28.30;56.30
3298;DHT22;1661;53.572;10.174;2023-07-29T13:14:52;28.40;54.80
3298;DHT22;1661;53.572;10.174;2023-07-29T13:17:19;28.40;55.50
3298;DHT22;1661;53.572;10.174;2023-07-29T13:19:47;28.40;55.30
3298;DHT22;1661;53.572;10.174;2023-07-29T13:22:14;28.50;55.70
3298;DHT22;1661;53.572;10.174;2023-07-29T13:24:40;28.50;53.80
3298;DHT22;1661;53.572;10.174;2023-07-29T13:27:07;28.50;54.90
3298;DHT22;1661;53.572;10.174;2023-07-29T13:29:34;28.60;54.70
3298;DHT22;1661;53.572;10.174;2023-07-29T13:32:02;28.60;54.00
3298;DHT22;1661;53.572;10.174;2023-07-29T13:34:29;28.80;53.30
3298;DHT22;1661;53.572;10.174;2023-07-29T13:36:56;28.80;53.70
3298;DHT22;1661;53.572;10.174;2023-07-29T13:39:23;28.70;53.90
3298;DHT22;1661;53.572;10.174;2023-07-29T13:41:49;28.60;55.10
3298;DHT22;1661;53.572;10.174;2023-07-29T13:44:16;28.50;54.10
3298;DHT22;1661;53.572;10.174;2023-07-29T13:46:43;28.40;54.50
3298;DHT22;1661;53.572;10.174;2023-07-29T13:49:11;28.30;56.90
3298;DHT22;1661;53.572;10.174;2023-07-29T13:51:38;28.30;58.20
3298;DHT22;1661;53.572;10.174;2023-07-29T13:54:05;28.30;56.20
3298;DHT22;1661;53.572;10.174;2023-07-29T13:56:31;28.30;54.40
3298;DHT22;1661;53.572;10.174;2023-07-29T13:58:58;28.40;56.30
3298;DHT22;1661;53.572;10.174;2023-07-29T14:01:25;28.40;55.60
3298;DHT22;1661;53.572;10.174;2023-07-29T14:03:52;28.60;57.10
3298;DHT22;1661;53.572;10.174;2023-07-29T14:06:20;28.80;53.80
3298;DHT22;1661;53.572;10.174;2023-07-29T14:08:47;28.90;54.70
3298;DHT22;1661;53.572;10.174;2023-07-29T14:11:13;29.10;54.10
3298;DHT22;1661;53.572;10.174;2023-07-29T14:13:40;29.10;54.60
3298;DHT22;1661;53.572;10.174;2023-07-29T14:16:07;29.20;53.00
3298;DHT22;1661;53.572;10.174;2023-07-29T14:18:34;29.30;53.30
3298;DHT22;1661;53.572;10.174;2023-07-29T14:21:00;29.40;54.10
3298;DHT22;1661;53.572;10.174;2023-07-29T14:23:29;29.20;52.90
3298;DHT22;1661;53.572;10.174;2023-07-29T14:25:55;29.10;53.10
3298;DHT22;1661;53.572;10.174;2023-07-29T14:28:22;29.00;54.10
3298;DHT22;1661;53.572;10.174;2023-07-29T14:30:49;29.00;54.50
3298;DHT22;1661;53.572;10.174;2023-07-29T14:33:16;29.00;54.00
3298;DHT22;1661;53.572;10.174;2023-07-29T14:35:42;29.10;52.60
3298;DHT22;1661;53.572;10.174;2023-07-29T14:38:09;29.20;53.40
3298;DHT22;1661;53.572;10.174;2023-07-29T14:40:37;29.20;52.50
3298;DHT22;1661;53.572;10.174;2023-07-29T14:43:04;29.20;53.20
3298;DHT22;1661;53.572;10.174;2023-07-29T14:45:31;29.20;54.30
3298;DHT22;1661;53.572;10.174;2023-07-29T14:47:58;29.20;52.60
3298;DHT22;1661;53.572;10.174;2023-07-29T14:50:25;29.20;55.10
3298;DHT22;1661;53.572;10.174;2023-07-29T14:52:51;29.10;53.70
3298;DHT22;1661;53.572;10.174;2023-07-29T14:55:18;28.90;53.60
3298;DHT22;1661;53.572;10.174;2023-07-29T14:57:47;28.90;54.70
3298;DHT22;1661;53.572;10.174;2023-07-29T15:00:14;28.80;55.50
3298;DHT22;1661;53.572;10.174;2023-07-29T15:02:41;28.90;56.50
3298;DHT22;1661;53.572;10.174;2023-07-29T15:05:08;29.00;54.80
3298;DHT22;1661;53.572;10.174;2023-07-29T15:07:35;29.00;53.80
3298;DHT22;1661;53.572;10.174;2023-07-29T15:10:02;29.10;52.50
3298;DHT22;1661;53.572;10.174;2023-07-29T15:12:29;28.90;52.50
3298;DHT22;1661;53.572;10.174;2023-07-29T15:14:57;28.90;52.30
3298;DHT22;1661;53.572;10.174;2023-07-29T15:17:24;28.80;52.80
3298;DHT22;1661;53.572;10.174;2023-07-29T15:19:51;28.60;52.20
3298;DHT22;1661;53.572;10.174;2023-07-29T15:22:17;28.40;54.20
3298;DHT22;1661;53.572;10.174;2023-07-29T15:24:44;28.30;53.60
3298;DHT22;1661;53.572;10.174;2023-07-29T15:27:12;28.10;52.60
3298;DHT22;1661;53.572;10.174;2023-07-29T15:29:38;28.00;53.40
3298;DHT22;1661;53.572;10.174;2023-07-29T15:32:07;28.00;54.00
3298;DHT22;1661;53.572;10.174;2023-07-29T15:34:34;28.00;53.80
3298;DHT22;1661;53.572;10.174;2023-07-29T15:37:02;27.90;54.70
3298;DHT22;1661;53.572;10.174;2023-07-29T15:39:29;28.00;55.50
3298;DHT22;1661;53.572;10.174;2023-07-29T15:41:56;28.00;53.50
3298;DHT22;1661;53.572;10.174;2023-07-29T15:44:22;28.00;54.70
3298;DHT22;1661;53.572;10.174;2023-07-29T15:46:49;27.90;53.00
3298;DHT22;1661;53.572;10.174;2023-07-29T15:49:18;27.90;54.90